Terminal Aerodrome Forecast
Issued by NWS

Current Version | Previous Version | Text Only | Print | Product List | Glossary On
Versions: 1 2 3 4 5 6 7 8 9 10 11 12 13
000
FTUS46 KLOX 010533
TAFPRB
TAF
KPRB 010533Z 0106/0206 32012KT P6SM SKC
     FM010900 VRB03KT P6SM SKC
     FM011400 VRB03KT 1/2SM FG VV002
     FM011700 VRB03KT P6SM SKC
     FM012200 30008KT P6SM SKC
     FM020500 VRB03KT P6SM SKC=

USA.gov is the U.S. government's official web portal to all federal, state and local government web resources and services.